Time;durP1;ratioP1;P1;durP2;ratioP2;P2;SDS_P1;SDS_P2;PMS_P1;PMS_P2;Temp;Humidity;BMP_temperature;BMP_pressure;BME280_temperature;BME280_humidity;BME280_pressure;Samples;Min_cycle;Max_cycle;Signal;HPM_P1;HPM_P2
2023/11/24 00:02:08;;;;;;;4.70;1.97;;;;;;;;;;6224758;23;20379;-89
2023/11/24 00:04:37;;;;;;;9.40;2.30;;;;;;;;;;6227543;23;20400;-88
2023/11/24 00:07:11;;;;;;;6.60;1.90;;;;;;;;;;6229097;23;21185;-86
2023/11/24 00:09:43;;;;;;;7.93;1.60;;;;;;;;;;6222354;23;20491;-87
2023/11/24 00:12:14;;;;;;;6.20;2.43;;;;;;;;;;6216817;23;20848;-85
2023/11/24 00:14:52;;;;;;;6.50;2.10;;;;;;;;;;6225160;23;20945;-86
2023/11/24 00:17:26;;;;;;;10.33;2.60;;;;;;;;;;6250693;23;21004;-85
2023/11/24 00:20:00;;;;;;;6.10;2.43;;;;;;;;;;6224498;23;20419;-87
2023/11/24 00:22:45;;;;;;;5.23;2.20;;;11.40;99.90;;;;;;6224631;23;20419;-87
2023/11/24 00:25:37;;;;;;;7.93;2.10;;;;;;;;;;6251472;23;20485;-85
2023/11/24 00:28:07;;;;;;;14.00;2.37;;;;;;;;;;6224095;23;20446;-86
2023/11/24 00:31:33;;;;;;;8.67;2.10;;;11.40;99.90;;;;;;6226686;23;20402;-87
2023/11/24 00:34:12;;;;;;;8.97;2.60;;;;;;;;;;6223117;23;20431;-89
2023/11/24 00:36:46;;;;;;;7.00;1.90;;;;;;;;;;6221051;23;20401;-88
2023/11/24 00:39:19;;;;;;;11.73;1.93;;;;;;;;;;6223441;23;20433;-87
2023/11/24 00:42:00;;;;;;;8.23;2.90;;;11.30;99.90;;;;;;6250075;23;20420;-86
2023/11/24 00:44:51;;;;;;;4.20;2.00;;;11.30;99.90;;;;;;6250468;23;20400;-88
2023/11/24 00:47:26;;;;;;;5.30;2.17;;;;;;;;;;6247085;23;20388;-87
2023/11/24 00:50:07;;;;;;;14.00;2.43;;;;;;;;;;6224930;23;20408;-90
2023/11/24 00:53:16;;;;;;;11.03;2.20;;;;;;;;;;6219615;23;20444;-87
2023/11/24 00:56:09;;;;;;;8.20;2.70;;;;;;;;;;6215795;23;20397;-85
2023/11/24 00:58:55;;;;;;;12.37;3.07;;;;;;;;;;6215883;23;20451;-88
2023/11/24 01:01:34;;;;;;;8.83;2.40;;;;;;;;;;6215986;23;20420;-88
2023/11/24 01:04:07;;;;;;;6.97;3.60;;;;;;;;;;6217163;23;20407;-88
2023/11/24 01:06:52;;;;;;;10.40;3.13;;;;;;;;;;6210676;23;20738;-88
2023/11/24 01:09:51;;;;;;;6.97;2.27;;;;;;;;;;6217791;23;20462;-87
2023/11/24 01:12:29;;;;;;;8.07;2.13;;;;;;;;;;6240858;23;20530;-87
2023/11/24 01:15:26;;;;;;;7.23;2.63;;;;;;;;;;6216480;23;20418;-88
2023/11/24 01:18:16;;;;;;;7.37;2.17;;;;;;;;;;6198567;23;20491;-88
2023/11/24 01:21:06;;;;;;;8.13;3.10;;;;;;;;;;6226967;23;20416;-86
2023/11/24 01:24:10;;;;;;;9.73;2.50;;;;;;;;;;6136032;23;20420;-88
2023/11/24 01:26:59;;;;;;;7.63;2.00;;;;;;;;;;6133463;23;20403;-87
2023/11/24 01:29:53;;;;;;;14.90;2.60;;;;;;;;;;6149468;23;20418;-86
2023/11/24 01:32:58;;;;;;;11.20;2.70;;;;;;;;;;6127202;23;20481;-88
2023/11/24 01:35:45;;;;;;;10.93;3.03;;;;;;;;;;6116523;23;20418;-89
2023/11/24 01:38:29;;;;;;;9.97;2.30;;;;;;;;;;6129089;23;20482;-89
2023/11/24 01:41:07;;;;;;;8.80;2.20;;;;;;;;;;6129379;23;20442;-87
2023/11/24 01:44:02;;;;;;;11.20;2.47;;;;;;;;;;6132028;23;20477;-89
2023/11/24 01:46:33;;;;;;;10.70;3.37;;;;;;;;;;6131454;23;20410;-88
2023/11/24 01:49:03;;;;;;;9.33;2.67;;;;;;;;;;6128293;23;20423;-88
2023/11/24 01:51:33;;;;;;;12.67;2.60;;;;;;;;;;6134388;23;20395;-87
2023/11/24 01:54:01;;;;;;;12.40;3.00;;;;;;;;;;6138991;23;20415;-89
2023/11/24 01:56:31;;;;;;;12.83;3.07;;;;;;;;;;6128482;23;20829;-89
2023/11/24 01:58:59;;;;;;;11.00;2.70;;;;;;;;;;6126666;23;20586;-86
2023/11/24 02:01:28;;;;;;;8.53;2.43;;;;;;;;;;6182912;23;20419;-87
2023/11/24 02:03:57;;;;;;;10.40;2.17;;;;;;;;;;6215599;23;20442;-87
2023/11/24 02:06:28;;;;;;;9.67;2.63;;;;;;;;;;6214342;23;20423;-89
2023/11/24 02:08:58;;;;;;;13.57;2.53;;;;;;;;;;6237529;23;20741;-86
2023/11/24 02:11:27;;;;;;;8.73;2.07;;;;;;;;;;6237429;23;20419;-88
2023/11/24 02:13:55;;;;;;;10.20;2.33;;;;;;;;;;6249396;23;20439;-87
2023/11/24 02:16:28;;;;;;;10.43;3.00;;;;;;;;;;6224104;23;20407;-90
2023/11/24 02:18:56;;;;;;;14.37;3.03;;;;;;;;;;6220467;23;20428;-87
2023/11/24 02:21:23;;;;;;;5.17;2.17;;;;;;;;;;6221934;23;20458;-88
2023/11/24 02:23:52;;;;;;;7.03;3.03;;;;;;;;;;6248646;23;20455;-89
2023/11/24 02:26:24;;;;;;;8.30;2.00;;;;;;;;;;6222876;23;20412;-89
2023/11/24 02:28:51;;;;;;;6.37;1.60;;;;;;;;;;6222265;23;20505;-88
2023/11/24 02:31:22;;;;;;;8.17;3.20;;;;;;;;;;6244472;23;20393;-88
2023/11/24 02:33:52;;;;;;;4.87;2.20;;;;;;;;;;6244005;23;20446;-90
2023/11/24 02:36:27;;;;;;;9.43;2.30;;;;;;;;;;6216856;23;20423;-88
2023/11/24 02:38:55;;;;;;;7.77;2.03;;;;;;;;;;6216871;23;20913;-87
2023/11/24 02:41:25;;;;;;;9.43;3.10;;;;;;;;;;6218912;23;20595;-85
2023/11/24 02:43:53;;;;;;;9.67;3.20;;;;;;;;;;6217414;23;20502;-85
2023/11/24 02:46:22;;;;;;;10.03;2.83;;;;;;;;;;6219463;23;20475;-88
2023/11/24 02:48:58;;;;;;;9.70;2.33;;;;;;;;;;6261201;23;20460;-89
2023/11/24 02:51:26;;;;;;;9.40;2.60;;;;;;;;;;6232663;23;20418;-89
2023/11/24 02:53:57;;;;;;;8.20;2.47;;;;;;;;;;6231285;23;20493;-88
2023/11/24 02:56:24;;;;;;;10.13;2.70;;;;;;;;;;6221731;23;20408;-88
2023/11/24 02:58:54;;;;;;;5.30;2.00;;;;;;;;;;6223118;23;20428;-87
2023/11/24 03:01:21;;;;;;;5.93;1.53;;;;;;;;;;6215863;23;20412;-88
2023/11/24 03:03:49;;;;;;;7.50;1.90;;;;;;;;;;6241805;23;20503;-87
2023/11/24 03:06:18;;;;;;;3.70;1.70;;;;;;;;;;6240222;23;20469;-86
2023/11/24 03:08:46;;;;;;;8.77;3.13;;;;;;;;;;6230451;23;20421;-91
2023/11/24 03:11:19;;;;;;;8.43;3.10;;;;;;;;;;6237657;22;20546;-90
2023/11/24 03:13:49;;;;;;;5.70;1.80;;;;;;;;;;6238962;23;20571;-90
2023/11/24 03:16:18;;;;;;;7.40;1.87;;;;;;;;;;6239042;23;20392;-90
2023/11/24 03:18:48;;;;;;;12.20;2.53;;;;;;;;;;6260043;22;20512;-87
2023/11/24 03:21:16;;;;;;;12.10;3.00;;;;;;;;;;6219536;23;20408;-87
2023/11/24 03:23:45;;;;;;;6.37;2.40;;;;;;;;;;6243094;23;20431;-87
2023/11/24 03:26:21;;;;;;;12.00;2.53;;;;;;;;;;6220935;23;20416;-87
2023/11/24 03:28:57;;;;;;;7.13;2.10;;;;;;;;;;6220536;23;20514;-87
2023/11/24 03:31:36;;;;;;;9.33;2.37;;;;;;;;;;6219349;23;20408;-87
2023/11/24 03:34:08;;;;;;;13.37;2.50;;;;;;;;;;6217951;23;20759;-87
2023/11/24 03:36:40;;;;;;;7.00;2.20;;;;;;;;;;6218236;23;20427;-87
2023/11/24 03:39:16;;;;;;;6.93;2.30;;;;;;;;;;6219270;23;20474;-87
2023/11/24 03:41:51;;;;;;;7.87;2.30;;;;;;;;;;6217539;23;20765;-88
2023/11/24 03:44:30;;;;;;;4.23;2.13;;;;;;;;;;6217275;23;20438;-88
2023/11/24 03:47:02;;;;;;;4.80;1.70;;;;;;;;;;6219316;23;20469;-87
2023/11/24 03:49:33;;;;;;;5.33;1.67;;;;;;;;;;6217427;23;20451;-88
2023/11/24 03:52:06;;;;;;;10.13;2.30;;;;;;;;;;6218920;23;20864;-88
2023/11/24 03:54:46;;;;;;;10.17;2.10;;;;;;;;;;6214578;23;20490;-86
2023/11/24 03:57:22;;;;;;;6.27;1.90;;;;;;;;;;6216579;23;20543;-88
2023/11/24 03:59:55;;;;;;;9.13;3.13;;;;;;;;;;6215050;23;20857;-86
2023/11/24 04:02:23;;;;;;;8.97;2.93;;;;;;;;;;6213969;23;20412;-85
2023/11/24 04:04:53;;;;;;;8.40;2.23;;;;;;;;;;6212948;23;20412;-85
2023/11/24 04:07:21;;;;;;;5.13;2.07;;;;;;;;;;6213028;23;21083;-87
2023/11/24 04:09:53;;;;;;;10.53;2.00;;;;;;;;;;6211832;23;20478;-87
2023/11/24 04:12:20;;;;;;;10.87;2.40;;;;;;;;;;6210307;23;20440;-86
2023/11/24 04:14:57;;;;;;;5.27;2.10;;;;;;;;;;6200599;23;20556;-85
2023/11/24 04:17:24;;;;;;;6.97;2.00;;;;;;;;;;6210699;23;20503;-86
2023/11/24 04:20:04;;;;;;;8.17;2.93;;;;;;;;;;6237486;23;20913;-87
2023/11/24 04:22:38;;;;;;;6.30;1.90;;;;;;;;;;6210086;23;20420;-84
2023/11/24 04:25:06;;;;;;;5.80;1.20;;;;;;;;;;6211108;23;20412;-84
2023/11/24 04:27:37;;;;;;;5.63;1.57;;;;;;;;;;6236558;23;20436;-86
2023/11/24 04:30:06;;;;;;;8.87;1.63;;;;;;;;;;6210548;23;20416;-85
2023/11/24 04:32:43;;;;;;;7.57;1.57;;;;;;;;;;6210323;23;20517;-84
2023/11/24 04:35:11;;;;;;;5.47;1.20;;;;;;;;;;6235975;23;20792;-86
2023/11/24 04:37:42;;;;;;;7.27;1.50;;;;;;;;;;6209789;23;20506;-86
2023/11/24 04:40:22;;;;;;;4.43;1.50;;;;;;;;;;6213232;23;20403;-87
2023/11/24 04:42:57;;;;;;;5.70;1.43;;;;;;;;;;6212410;23;20439;-88
2023/11/24 04:45:30;;;;;;;6.17;2.13;;;;;;;;;;6214579;23;20800;-88
2023/11/24 04:48:05;;;;;;;4.80;1.47;;;;;;;;;;6213985;23;20436;-87
2023/11/24 04:50:39;;;;;;;6.17;1.40;;;;;;;;;;6213407;23;20430;-86
2023/11/24 04:53:08;;;;;;;1.97;1.30;;;;;;;;;;6215654;23;20490;-87
2023/11/24 04:55:45;;;;;;;9.20;1.93;;;9.90;99.90;;;;;;6214453;23;20435;-88
2023/11/24 04:58:13;;;;;;;6.27;2.50;;;;;;;;;;6248913;23;20428;-88
2023/11/24 05:00:47;;;;;;;7.40;1.60;;;;;;;;;;6226318;23;20836;-88
2023/11/24 05:03:21;;;;;;;9.27;1.77;;;;;;;;;;6225342;23;20432;-89
2023/11/24 05:06:03;;;;;;;4.53;1.40;;;;;;;;;;6219673;23;20400;-87
2023/11/24 05:08:41;;;;;;;4.10;1.20;;;;;;;;;;6216845;23;20471;-86
2023/11/24 05:11:14;;;;;;;3.50;1.50;;;;;;;;;;6244591;23;20411;-89
2023/11/24 05:13:41;;;;;;;5.77;1.70;;;;;;;;;;6222496;23;20428;-88
2023/11/24 05:16:14;;;;;;;7.93;2.17;;;;;;;;;;6260646;23;20422;-88
2023/11/24 05:18:45;;;;;;;11.50;2.23;;;;;;;;;;6220823;23;20436;-87
2023/11/24 05:21:13;;;;;;;9.50;1.83;;;;;;;;;;6217474;23;20449;-88
2023/11/24 05:23:41;;;;;;;6.57;1.40;;;;;;;;;;6218604;23;20430;-89
2023/11/24 05:26:13;;;;;;;3.13;1.57;;;;;;;;;;6219931;23;20416;-87
2023/11/24 05:28:44;;;;;;;5.37;1.80;;;;;;;;;;6215400;23;20459;-87
2023/11/24 05:31:16;;;;;;;5.50;1.70;;;;;;;;;;6214391;23;20443;-86
2023/11/24 05:33:45;;;;;;;2.30;0.87;;;;;;;;;;6216097;23;20451;-86
2023/11/24 05:36:27;;;;;;;3.33;1.43;;;;;;;;;;6217101;23;20406;-87
2023/11/24 05:39:00;;;;;;;5.63;1.40;;;;;;;;;;6215000;23;20439;-86
2023/11/24 05:41:29;;;;;;;5.60;1.60;;;9.50;99.90;;;;;;6214077;23;20470;-89
2023/11/24 05:43:58;;;;;;;4.33;1.60;;;9.50;99.90;;;;;;6241073;23;20428;-88
2023/11/24 05:46:28;;;;;;;7.63;1.70;;;9.50;99.90;;;;;;6214171;23;20729;-85
2023/11/24 05:48:57;;;;;;;7.87;1.83;;;9.50;99.90;;;;;;6220689;23;20432;-88
2023/11/24 05:51:27;;;;;;;5.17;1.57;;;9.50;99.90;;;;;;6242485;23;20407;-87
2023/11/24 05:54:02;;;;;;;4.27;1.30;;;9.50;99.90;;;;;;6239173;23;21089;-88
2023/11/24 05:56:34;;;;;;;4.33;1.17;;;9.50;99.90;;;;;;6214073;23;20740;-86
2023/11/24 05:59:01;;;;;;;5.80;1.90;;;9.50;99.90;;;;;;6240153;23;20536;-90
2023/11/24 06:01:37;;;;;;;3.23;1.70;;;;;;;;;;6218089;23;20584;-87
2023/11/24 06:04:14;;;;;;;7.30;1.90;;;;;;;;;;6215282;23;20483;-86
2023/11/24 06:06:44;;;;;;;3.10;1.17;;;;;;;;;;6214946;23;20444;-86
2023/11/24 06:09:14;;;;;;;3.23;1.00;;;9.40;99.90;;;;;;6215099;23;20440;-86
2023/11/24 06:11:46;;;;;;;4.10;1.40;;;;;;;;;;6239223;23;20420;-87
2023/11/24 06:14:18;;;;;;;6.23;1.33;;;;;;;;;;6216068;23;20531;-87
2023/11/24 06:16:56;;;;;;;3.60;1.43;;;;;;;;;;6219523;23;20418;-85
2023/11/24 06:19:25;;;;;;;4.03;1.53;;;9.50;99.90;;;;;;6242212;23;20428;-86
2023/11/24 06:21:56;;;;;;;3.50;1.20;;;;;;;;;;6218769;23;20447;-87
2023/11/24 06:24:25;;;;;;;5.83;1.10;;;;;;;;;;6228657;23;20432;-86
2023/11/24 06:27:06;;;;;;;6.77;1.30;;;;;;;;;;6222293;23;20450;-87
2023/11/24 06:29:39;;;;;;;7.67;1.87;;;;;;;;;;6230242;23;20474;-86
2023/11/24 06:32:12;;;;;;;2.43;1.73;;;;;;;;;;6206528;23;20401;-88
2023/11/24 06:34:47;;;;;;;5.00;1.60;;;;;;;;;;6231013;23;20470;-87
2023/11/24 06:37:22;;;;;;;7.13;1.80;;;;;;;;;;6229947;23;20396;-86
2023/11/24 06:39:55;;;;;;;4.83;1.43;;;;;;;;;;6245922;23;20408;-86
2023/11/24 06:42:27;;;;;;;7.83;1.57;;;;;;;;;;6246639;23;20412;-87
2023/11/24 06:45:03;;;;;;;6.33;1.63;;;;;;;;;;6249691;23;20452;-88
2023/11/24 06:47:30;;;;;;;11.40;2.80;;;9.40;99.90;;;;;;6230714;23;20446;-87
2023/11/24 06:50:03;;;;;;;12.03;1.80;;;;;;;;;;6214805;23;20423;-87
2023/11/24 06:52:30;;;;;;;7.90;1.97;;;;;;;;;;6242952;23;20430;-87
2023/11/24 06:55:03;;;;;;;5.93;1.90;;;;;;;;;;6223040;23;20506;-86
2023/11/24 06:57:36;;;;;;;6.13;2.00;;;9.40;99.90;;;;;;6223610;23;20404;-85
2023/11/24 07:00:07;;;;;;;5.60;2.30;;;9.40;99.90;;;;;;6247531;23;20412;-87
2023/11/24 07:02:44;;;;;;;7.07;1.90;;;9.40;99.90;;;;;;6245279;23;20404;-87
2023/11/24 07:05:17;;;;;;;10.50;2.60;;;9.30;99.90;;;;;;6242001;23;20399;-84
2023/11/24 07:07:49;;;;;;;9.57;2.40;;;;;;;;;;6215192;23;20458;-85
2023/11/24 07:10:27;;;;;;;11.20;1.40;;;9.40;99.90;;;;;;6240750;23;20420;-87
2023/11/24 07:12:54;;;;;;;7.23;1.90;;;9.40;99.90;;;;;;6237685;23;20408;-85
2023/11/24 07:15:29;;;;;;;6.90;1.60;;;;;;;;;;6239036;23;20419;-88
2023/11/24 07:17:59;;;;;;;8.40;2.43;;;;;;;;;;6212948;23;20464;-86
2023/11/24 07:20:29;;;;;;;10.10;3.73;;;;;;;;;;6239542;23;20428;-86
2023/11/24 07:23:02;;;;;;;2.83;1.50;;;;;;;;;;6212312;23;20462;-85
2023/11/24 07:25:37;;;;;;;3.77;1.30;;;;;;;;;;6214371;23;20411;-86
2023/11/24 07:28:09;;;;;;;3.87;2.47;;;;;;;;;;6241095;23;20995;-85
2023/11/24 07:30:36;;;;;;;9.20;2.87;;;;;;;;;;6211754;23;20470;-86
2023/11/24 07:33:08;;;;;;;8.50;2.20;;;;;;;;;;6214231;23;20478;-87
2023/11/24 07:35:39;;;;;;;5.80;1.73;;;;;;;;;;6213147;23;20783;-87
2023/11/24 07:38:06;;;;;;;3.50;1.27;;;;;;;;;;6212564;23;20431;-85
2023/11/24 07:40:39;;;;;;;1.20;0.73;;;;;;;;;;6211834;23;20404;-87
2023/11/24 07:43:09;;;;;;;2.50;1.10;;;;;;;;;;6211841;23;20438;-85
2023/11/24 07:45:36;;;;;;;1.17;1.07;;;;;;;;;;6211971;23;20408;-88
2023/11/24 07:48:06;;;;;;;3.90;1.37;;;;;;;;;;6212162;23;20452;-86
2023/11/24 07:50:33;;;;;;;1.60;1.13;;;;;;;;;;6211265;23;20434;-89
2023/11/24 07:53:03;;;;;;;6.37;1.30;;;;;;;;;;6211427;23;20439;-87
2023/11/24 07:55:31;;;;;;;2.10;1.03;;;;;;;;;;6211489;23;20411;-87
2023/11/24 07:58:03;;;;;;;2.67;1.30;;;9.30;99.90;;;;;;6237555;23;20435;-89
2023/11/24 08:00:31;;;;;;;7.50;2.00;;;9.30;99.90;;;;;;6236916;23;20885;-88
2023/11/24 08:03:06;;;;;;;3.93;1.83;;;;;;;;;;6214822;23;20412;-88
2023/11/24 08:05:38;;;;;;;6.93;2.07;;;9.40;99.90;;;;;;6212226;23;20484;-86
2023/11/24 08:08:13;;;;;;;6.63;2.27;;;9.30;99.90;;;;;;6242844;23;20455;-88
2023/11/24 08:10:45;;;;;;;6.07;2.00;;;;;;;;;;6242150;23;20485;-86
2023/11/24 08:13:19;;;;;;;5.93;2.50;;;;;;;;;;6212689;23;20495;-87
2023/11/24 08:15:49;;;;;;;4.83;1.27;;;9.30;99.90;;;;;;6212974;23;20408;-86
2023/11/24 08:18:19;;;;;;;1.93;1.10;;;;;;;;;;6238709;23;20443;-86
2023/11/24 08:20:49;;;;;;;2.00;0.90;;;;;;;;;;6212547;23;20435;-85
2023/11/24 08:23:21;;;;;;;3.27;1.03;;;;;;;;;;6212874;23;20483;-87
2023/11/24 08:25:51;;;;;;;1.83;1.30;;;;;;;;;;6213355;23;21165;-87
2023/11/24 08:28:19;;;;;;;2.50;0.70;;;;;;;;;;6214133;23;20436;-88
2023/11/24 08:30:56;;;;;;;8.77;2.20;;;;;;;;;;6219441;23;20738;-86
2023/11/24 08:33:26;;;;;;;1.53;0.97;;;;;;;;;;6223539;23;20427;-88
2023/11/24 08:35:58;;;;;;;1.53;0.83;;;;;;;;;;6234221;22;20423;-86
2023/11/24 08:38:28;;;;;;;2.43;1.00;;;;;;;;;;6223350;23;20527;-85
2023/11/24 08:41:13;;;;;;;2.73;0.80;;;;;;;;;;6223904;23;20442;-87
2023/11/24 08:43:53;;;;;;;2.30;1.00;;;;;;;;;;6219301;23;20420;-86
2023/11/24 08:46:34;;;;;;;1.10;1.00;;;;;;;;;;6223866;23;20473;-85
2023/11/24 08:49:10;;;;;;;2.50;1.00;;;;;;;;;;6217992;23;20443;-86
2023/11/24 08:51:52;;;;;;;1.63;0.80;;;;;;;;;;6224400;23;20454;-87
2023/11/24 08:54:40;;;;;;;4.57;1.50;;;;;;;;;;6224100;23;20420;-85
2023/11/24 08:57:07;;;;;;;2.70;1.20;;;;;;;;;;6224687;23;20483;-88
2023/11/24 08:59:54;;;;;;;2.10;1.03;;;;;;;;;;6239779;23;20547;-86
2023/11/24 09:02:43;;;;;;;1.30;0.90;;;;;;;;;;6214595;23;20399;-87
2023/11/24 09:05:26;;;;;;;2.00;0.90;;;;;;;;;;6221913;23;20408;-86
2023/11/24 09:07:58;;;;;;;2.33;0.93;;;;;;;;;;6217538;23;20453;-88
2023/11/24 09:10:32;;;;;;;2.00;1.13;;;;;;;;;;6215491;23;20416;-86
2023/11/24 09:13:07;;;;;;;1.37;1.10;;;;;;;;;;6216626;23;20481;-88
2023/11/24 09:15:39;;;;;;;3.50;1.10;;;;;;;;;;6216756;23;20436;-87
2023/11/24 09:18:21;;;;;;;3.30;1.50;;;;;;;;;;6214669;23;20432;-90
2023/11/24 09:20:52;;;;;;;4.00;1.30;;;;;;;;;;6214296;23;20452;-89
2023/11/24 09:23:29;;;;;;;2.80;1.23;;;;;;;;;;6215828;23;20404;-86
2023/11/24 09:26:09;;;;;;;5.00;1.50;;;;;;;;;;6217784;23;20491;-86
2023/11/24 09:29:00;;;;;;;6.30;1.10;;;;;;;;;;6215967;23;20500;-88
2023/11/24 09:31:35;;;;;;;3.33;1.67;;;;;;;;;;6217138;23;20635;-87
2023/11/24 09:34:28;;;;;;;6.80;2.10;;;;;;;;;;6204689;23;20454;-88
2023/11/24 09:37:02;;;;;;;2.83;1.80;;;;;;;;;;6213110;23;21223;-88
2023/11/24 09:39:56;;;;;;;3.50;1.60;;;;;;;;;;6157413;23;20392;-85
2023/11/24 09:42:33;;;;;;;4.50;1.50;;;;;;;;;;6226825;23;20594;-84
2023/11/24 09:45:15;;;;;;;4.10;1.43;;;;;;;;;;6212701;23;20483;-85
2023/11/24 09:47:59;;;;;;;6.30;1.30;;;;;;;;;;6235532;22;20424;-89
2023/11/24 09:50:33;;;;;;;3.43;1.47;;;;;;;;;;6237940;22;20479;-89
2023/11/24 09:53:04;;;;;;;3.43;1.17;;;;;;;;;;6262382;22;20400;-88
2023/11/24 09:55:50;;;;;;;7.00;1.17;;;;;;;;;;6241368;23;20558;-86
2023/11/24 09:58:26;;;;;;;5.50;1.37;;;;;;;;;;6236473;23;20435;-85
2023/11/24 10:01:05;;;;;;;6.37;1.70;;;;;;;;;;6244000;23;20443;-85
2023/11/24 10:03:49;;;;;;;3.57;1.20;;;;;;;;;;6221711;23;20933;-86
2023/11/24 10:06:29;;;;;;;4.23;1.67;;;;;;;;;;6221567;23;20423;-85
2023/11/24 10:09:13;;;;;;;6.83;1.63;;;;;;;;;;6222138;23;20435;-87
2023/11/24 10:14:57;;;;;;;6.00;1.30;;;;;;;;;;6238326;23;20509;-84
2023/11/24 10:17:39;;;;;;;7.10;1.70;;;;;;;;;;6230009;23;20406;-89
2023/11/24 10:20:11;;;;;;;1.93;1.10;;;;;;;;;;6256072;23;20487;-87
2023/11/24 10:23:08;;;;;;;;;;;;;;;;;;;;;
2023/11/24 10:25:52;;;;;;;6.93;1.50;;;;;;;;;;6250170;23;20424;-87
2023/11/24 10:28:21;;;;;;;5.60;1.17;;;;;;;;;;6246897;23;20435;-86
2023/11/24 10:30:49;;;;;;;5.80;1.50;;;;;;;;;;6222193;23;20427;-88
2023/11/24 10:36:44;;;;;;;8.30;2.83;;;;;;;;;;6248188;23;20384;-86
2023/11/24 10:39:21;;;;;;;4.20;0.97;;;;;;;;;;6220617;23;20456;-86
2023/11/24 10:42:15;;;;;;;6.40;3.30;;;;;;;;;;6219141;23;20468;-87
2023/11/24 10:44:53;;;;;;;2.53;2.33;;;;;;;;;;6220177;23;20408;-86
2023/11/24 10:47:39;;;;;;;3.13;1.00;;;;;;;;;;6217805;23;20442;-88
2023/11/24 10:50:16;;;;;;;3.57;1.20;;;;;;;;;;6218964;23;20427;-88
2023/11/24 10:53:17;;;;;;;1.50;1.00;;;;;;;;;;6218534;23;20429;-86
2023/11/24 10:56:12;;;;;;;;;;;;;;;;;;;;;
2023/11/24 10:58:54;;;;;;;1.80;0.83;;;;;;;;;;6244459;23;20452;-85
2023/11/24 11:01:30;;;;;;;0.97;0.87;;;;;;;;;;6225213;23;20415;-87
2023/11/24 11:04:09;;;;;;;1.80;1.00;;;;;;;;;;6221088;23;20435;-87
2023/11/24 11:07:14;;;;;;;2.40;0.87;;;;;;;;;;6182593;23;20400;-86
2023/11/24 11:10:03;;;;;;;2.27;1.23;;;;;;;;;;6223162;23;20451;-85
2023/11/24 11:12:40;;;;;;;1.97;0.83;;;;;;;;;;6223080;23;20771;-86
2023/11/24 11:15:23;;;;;;;4.00;1.80;;;;;;;;;;6252764;23;20818;-87
2023/11/24 11:18:28;;;;;;;2.83;1.40;;;;;;;;;;6221442;23;20424;-86
2023/11/24 11:21:24;;;;;;;2.30;1.23;;;;;;;;;;6172582;23;20506;-84
2023/11/24 11:24:09;;;;;;;2.57;1.10;;;;;;;;;;6215835;23;20423;-85
2023/11/24 11:27:02;;;;;;;5.03;1.23;;;;;;;;;;6219539;23;20419;-86
2023/11/24 11:29:42;;;;;;;2.30;1.20;;;;;;;;;;6219080;23;20771;-87
2023/11/24 11:32:15;;;;;;;4.33;1.27;;;;;;;;;;6217513;23;20989;-88
2023/11/24 11:34:59;;;;;;;4.33;1.00;;;;;;;;;;6243452;23;20459;-86
2023/11/24 11:37:32;;;;;;;1.37;1.27;;;;;;;;;;6217109;23;20408;-87
2023/11/24 11:40:19;;;;;;;2.03;1.20;;;;;;;;;;6221647;23;20404;-86
2023/11/24 11:43:05;;;;;;;4.03;1.30;;;;;;;;;;6230724;23;20412;-87
2023/11/24 11:45:59;;;;;;;2.77;0.80;;;;;;;;;;6236384;23;21034;-87
2023/11/24 11:48:43;;;;;;;4.67;1.27;;;;;;;;;;6226500;23;20637;-86
2023/11/24 11:51:35;;;;;;;2.13;0.80;;;;;;;;;;6251657;23;20505;-85
2023/11/24 11:54:13;;;;;;;2.50;1.00;;;;;;;;;;6235447;22;20503;-86
2023/11/24 11:56:54;;;;;;;1.43;0.90;;;;;;;;;;6211946;23;20476;-86
2023/11/24 11:59:28;;;;;;;3.23;1.10;;;;;;;;;;6243696;23;20475;-85
2023/11/24 12:02:04;;;;;;;2.40;1.20;;;;;;;;;;6220110;23;20900;-84
2023/11/24 12:04:45;;;;;;;;;;;;;;;;;;;;;
2023/11/24 12:07:35;;;;;;;3.20;1.43;;;;;;;;;;6238459;23;20570;-86
2023/11/24 12:10:16;;;;;;;3.20;1.67;;;;;;;;;;6208409;23;20435;-87
2023/11/24 12:13:06;;;;;;;4.50;1.20;;;;;;;;;;6218564;23;20376;-89
2023/11/24 12:15:42;;;;;;;1.50;1.00;;;;;;;;;;6218015;23;20444;-87
2023/11/24 12:18:28;;;;;;;1.57;0.77;;;;;;;;;;6219655;23;20499;-86
2023/11/24 12:21:18;;;;;;;2.00;1.13;;;;;;;;;;6199278;23;20384;-85
2023/11/24 12:23:57;;;;;;;2.53;0.80;;;;;;;;;;6218746;23;20412;-86
2023/11/24 12:26:44;;;;;;;1.83;0.73;;;;;;;;;;6253441;23;20475;-87
2023/11/24 12:29:25;;;;;;;1.87;0.83;;;;;;;;;;6225268;23;20436;-86
2023/11/24 12:32:14;;;;;;;3.30;1.20;;;;;;;;;;6210409;23;20671;-87
2023/11/24 12:34:46;;;;;;;1.10;1.00;;;;;;;;;;6244507;23;20471;-85
2023/11/24 12:37:31;;;;;;;1.17;0.77;;;;;;;;;;6216904;23;20428;-86
2023/11/24 12:40:21;;;;;;;0.90;0.67;;;;;;;;;;6243793;23;20405;-86
2023/11/24 12:43:01;;;;;;;1.63;0.73;;;;;;;;;;6218440;23;20419;-86
2023/11/24 12:45:42;;;;;;;1.60;1.20;;;;;;;;;;6242896;23;20419;-87
2023/11/24 12:48:19;;;;;;;0.90;0.60;;;;;;;;;;6241555;23;20481;-87
2023/11/24 12:50:56;;;;;;;2.17;0.70;;;;;;;;;;6214768;23;20749;-84
2023/11/24 12:53:46;;;;;;;1.60;1.00;;;;;;;;;;6216654;23;20389;-86
2023/11/24 12:56:16;;;;;;;2.30;1.00;;;;;;;;;;6213770;23;20440;-89
2023/11/24 12:58:52;;;;;;;1.10;0.80;;;;;;;;;;6215349;23;20428;-87
2023/11/24 13:01:23;;;;;;;1.53;0.80;;;;;;;;;;6214724;23;20419;-83
2023/11/24 13:04:03;;;;;;;3.23;1.13;;;;;;;;;;6218103;23;20450;-86
2023/11/24 13:06:52;;;;;;;1.70;0.63;;;;;;;;;;6217266;23;20503;-85
2023/11/24 13:09:28;;;;;;;1.07;0.90;;;;;;;;;;6216413;23;20432;-86
2023/11/24 13:12:17;;;;;;;2.23;1.13;;;;;;;;;;6215263;23;20900;-86
2023/11/24 13:14:59;;;;;;;3.23;1.13;;;;;;;;;;6217637;23;20746;-86
2023/11/24 13:17:32;;;;;;;3.50;1.20;;;;;;;;;;6216206;23;20939;-86
2023/11/24 13:20:14;;;;;;;2.60;1.27;;;;;;;;;;6215660;23;20427;-85
2023/11/24 13:22:54;;;;;;;3.70;1.20;;;8.60;98.10;;;;;;6217146;23;20423;-86
2023/11/24 13:25:38;;;;;;;2.63;1.30;;;8.60;98.00;;;;;;6241272;23;20419;-86
2023/11/24 13:28:19;;;;;;;6.33;1.30;;;8.60;97.90;;;;;;6243329;23;20545;-87
2023/11/24 13:30:56;;;;;;;6.47;1.20;;;8.60;97.70;;;;;;6242311;23;20810;-88
2023/11/24 13:33:26;;;;;;;3.80;1.30;;;8.70;97.40;;;;;;6242452;23;20404;-88
2023/11/24 13:35:57;;;;;;;4.63;1.57;;;8.70;97.30;;;;;;6243598;23;20444;-87
2023/11/24 13:38:34;;;;;;;2.10;1.43;;;;;;;;;;6238599;22;20464;-86
2023/11/24 13:41:05;;;;;;;3.63;1.30;;;;;;;;;;6236932;23;20468;-87
2023/11/24 13:43:45;;;;;;;4.63;1.30;;;8.70;97.00;;;;;;6215605;23;20416;-87
2023/11/24 13:46:21;;;;;;;4.87;1.70;;;8.70;97.50;;;;;;6213502;23;20409;-86
2023/11/24 13:48:54;;;;;;;6.40;1.90;;;8.70;97.50;;;;;;6221157;23;20413;-87
2023/11/24 13:51:41;;;;;;;4.67;1.50;;;8.70;97.00;;;;;;6224597;23;20986;-88
2023/11/24 13:54:15;;;;;;;4.23;1.33;;;8.70;96.80;;;;;;6228537;23;20390;-87
2023/11/24 13:56:46;;;;;;;5.13;1.67;;;8.80;96.70;;;;;;6231000;23;20429;-86
2023/11/24 13:59:25;;;;;;;7.80;2.00;;;;;;;;;;6232579;23;20416;-86
2023/11/24 14:02:06;;;;;;;5.63;1.57;;;;;;;;;;6233350;23;20496;-86
2023/11/24 14:04:35;;;;;;;5.27;1.20;;;;;;;;;;6232684;23;20401;-87
2023/11/24 14:07:02;;;;;;;5.17;1.47;;;;;;;;;;6232705;23;20485;-87
2023/11/24 14:09:33;;;;;;;2.70;0.90;;;8.90;96.10;;;;;;6234719;23;20424;-86
2023/11/24 14:12:05;;;;;;;3.80;1.70;;;;;;;;;;6259441;22;20395;-87
2023/11/24 14:14:38;;;;;;;7.43;1.13;;;8.70;95.40;;;;;;6235594;23;20405;-87
2023/11/24 14:17:05;;;;;;;3.77;1.67;;;;;;;;;;6236837;23;20401;-87
2023/11/24 14:19:32;;;;;;;7.23;2.90;;;8.60;95.50;;;;;;6237655;23;20460;-86
2023/11/24 14:22:04;;;;;;;4.30;1.70;;;8.60;96.00;;;;;;6238674;23;20397;-86
2023/11/24 14:24:32;;;;;;;4.50;1.53;;;8.70;95.90;;;;;;6237597;23;20401;-83
2023/11/24 14:27:04;;;;;;;5.00;1.40;;;8.80;96.10;;;;;;6231281;23;20473;-85
2023/11/24 14:29:33;;;;;;;3.33;1.40;;;8.70;96.10;;;;;;6234897;23;20520;-86
2023/11/24 14:32:05;;;;;;;4.73;1.30;;;8.80;96.20;;;;;;6235833;23;20412;-87
2023/11/24 14:34:42;;;;;;;5.03;1.27;;;8.70;96.30;;;;;;6231907;23;21359;-85
2023/11/24 14:37:11;;;;;;;5.60;1.10;;;8.70;96.40;;;;;;6218537;23;20432;-86
2023/11/24 14:39:43;;;;;;;3.00;1.20;;;8.70;96.30;;;;;;6217841;23;20437;-85
2023/11/24 14:42:14;;;;;;;2.87;1.30;;;8.70;96.40;;;;;;6242140;23;20377;-87
2023/11/24 14:44:43;;;;;;;5.90;1.70;;;8.70;96.70;;;;;;6216375;23;20412;-87
2023/11/24 14:47:22;;;;;;;3.73;1.80;;;8.80;97.00;;;;;;6217951;23;20407;-86
2023/11/24 14:49:59;;;;;;;5.33;1.37;;;8.70;97.00;;;;;;6216569;23;20871;-85
2023/11/24 14:52:29;;;;;;;6.70;1.50;;;8.70;96.90;;;;;;6215039;23;20468;-85
2023/11/24 14:55:12;;;;;;;4.97;1.67;;;8.60;96.80;;;;;;6214604;23;20420;-87
2023/11/24 14:57:48;;;;;;;6.53;1.17;;;8.60;96.70;;;;;;6216298;23;20855;-87
2023/11/24 15:00:30;;;;;;;4.30;1.10;;;8.60;96.70;;;;;;6214273;23;20447;-85
2023/11/24 15:03:08;;;;;;;6.80;1.97;;;8.60;96.60;;;;;;6213652;23;20409;-88
2023/11/24 15:05:38;;;;;;;7.83;1.40;;;8.60;96.60;;;;;;6214601;23;20419;-85
2023/11/24 15:08:13;;;;;;;5.83;1.30;;;8.50;96.50;;;;;;6220548;23;20501;-85
2023/11/24 15:10:46;;;;;;;9.47;2.03;;;8.50;96.50;;;;;;6225348;23;20412;-87
2023/11/24 15:13:20;;;;;;;4.23;1.50;;;8.40;96.80;;;;;;6226357;23;21083;-86
2023/11/24 15:15:53;;;;;;;4.10;1.10;;;8.40;97.10;;;;;;6246325;23;20428;-85
2023/11/24 15:18:26;;;;;;;2.30;1.77;;;8.40;97.20;;;;;;6221046;23;20433;-87
2023/11/24 15:20:57;;;;;;;0.93;0.87;;;8.30;97.20;;;;;;6215333;23;20416;-87